sensor_id;sensor_type;location;lat;lon;timestamp;temperature;humidity
17425;DHT22;8830;50.978;5.058;2023-05-23T00:00:22;15.00;99.90
17425;DHT22;8830;50.978;5.058;2023-05-23T00:02:49;15.00;99.90
17425;DHT22;8830;50.978;5.058;2023-05-23T00:05:17;15.00;99.90
17425;DHT22;8830;50.978;5.058;2023-05-23T00:07:44;14.90;99.90
17425;DHT22;8830;50.978;5.058;2023-05-23T00:10:12;14.90;99.90
17425;DHT22;8830;50.978;5.058;2023-05-23T00:12:41;14.80;99.90
17425;DHT22;8830;50.978;5.058;2023-05-23T00:15:09;14.80;99.90
17425;DHT22;8830;50.978;5.058;2023-05-23T00:17:36;14.80;99.90
17425;DHT22;8830;50.978;5.058;2023-05-23T00:20:05;14.70;99.90
17425;DHT22;8830;50.978;5.058;2023-05-23T00:22:34;14.70;99.90
17425;DHT22;8830;50.978;5.058;2023-05-23T00:25:05;14.70;99.90
17425;DHT22;8830;50.978;5.058;2023-05-23T00:27:32;14.60;99.90
17425;DHT22;8830;50.978;5.058;2023-05-23T00:30:00;14.60;99.90
17425;DHT22;8830;50.978;5.058;2023-05-23T00:32:29;14.60;99.90
17425;DHT22;8830;50.978;5.058;2023-05-23T00:34:56;14.60;99.90
17425;DHT22;8830;50.978;5.058;2023-05-23T00:37:23;14.50;99.90
17425;DHT22;8830;50.978;5.058;2023-05-23T00:39:50;14.60;99.90
17425;DHT22;8830;50.978;5.058;2023-05-23T00:42:17;14.60;99.90
17425;DHT22;8830;50.978;5.058;2023-05-23T00:44:44;14.60;99.90
17425;DHT22;8830;50.978;5.058;2023-05-23T00:47:14;14.70;99.90
17425;DHT22;8830;50.978;5.058;2023-05-23T00:49:41;14.80;99.90
17425;DHT22;8830;50.978;5.058;2023-05-23T00:52:09;14.90;99.90
17425;DHT22;8830;50.978;5.058;2023-05-23T00:54:36;14.90;99.90
17425;DHT22;8830;50.978;5.058;2023-05-23T00:57:05;15.00;99.90
17425;DHT22;8830;50.978;5.058;2023-05-23T00:59:32;15.00;99.90
17425;DHT22;8830;50.978;5.058;2023-05-23T01:02:01;15.00;99.90
17425;DHT22;8830;50.978;5.058;2023-05-23T01:04:30;15.10;99.90
17425;DHT22;8830;50.978;5.058;2023-05-23T01:06:59;15.10;99.90
17425;DHT22;8830;50.978;5.058;2023-05-23T01:09:27;15.10;99.90
17425;DHT22;8830;50.978;5.058;2023-05-23T01:12:05;15.10;99.90
17425;DHT22;8830;50.978;5.058;2023-05-23T01:14:41;15.10;99.90
17425;DHT22;8830;50.978;5.058;2023-05-23T01:17:14;15.20;99.90
17425;DHT22;8830;50.978;5.058;2023-05-23T01:20:02;15.20;99.90
17425;DHT22;8830;50.978;5.058;2023-05-23T01:22:39;15.20;99.90
17425;DHT22;8830;50.978;5.058;2023-05-23T01:25:15;15.20;99.90
17425;DHT22;8830;50.978;5.058;2023-05-23T01:27:53;15.20;99.90
17425;DHT22;8830;50.978;5.058;2023-05-23T01:30:22;15.30;99.90
17425;DHT22;8830;50.978;5.058;2023-05-23T01:32:53;15.20;99.90
17425;DHT22;8830;50.978;5.058;2023-05-23T01:35:24;15.20;99.90
17425;DHT22;8830;50.978;5.058;2023-05-23T01:37:52;15.20;99.90
17425;DHT22;8830;50.978;5.058;2023-05-23T01:40:19;15.30;99.90
17425;DHT22;8830;50.978;5.058;2023-05-23T01:42:47;15.30;99.90
17425;DHT22;8830;50.978;5.058;2023-05-23T01:45:16;15.20;99.90
17425;DHT22;8830;50.978;5.058;2023-05-23T01:47:44;15.30;99.90
17425;DHT22;8830;50.978;5.058;2023-05-23T01:50:12;15.30;99.90
17425;DHT22;8830;50.978;5.058;2023-05-23T01:52:40;15.30;99.90
17425;DHT22;8830;50.978;5.058;2023-05-23T01:55:08;15.30;99.90
17425;DHT22;8830;50.978;5.058;2023-05-23T01:57:37;15.30;99.90
17425;DHT22;8830;50.978;5.058;2023-05-23T02:00:06;15.30;99.90
17425;DHT22;8830;50.978;5.058;2023-05-23T02:02:37;15.40;99.90
17425;DHT22;8830;50.978;5.058;2023-05-23T02:05:04;15.40;99.90
17425;DHT22;8830;50.978;5.058;2023-05-23T02:07:32;15.40;99.90
17425;DHT22;8830;50.978;5.058;2023-05-23T02:09:59;16.30;99.90
17425;DHT22;8830;50.978;5.058;2023-05-23T02:12:26;15.40;99.90
17425;DHT22;8830;50.978;5.058;2023-05-23T02:14:53;15.40;99.90
17425;DHT22;8830;50.978;5.058;2023-05-23T02:17:20;15.40;99.90
17425;DHT22;8830;50.978;5.058;2023-05-23T02:19:50;15.40;99.90
17425;DHT22;8830;50.978;5.058;2023-05-23T02:22:18;15.40;99.90
17425;DHT22;8830;50.978;5.058;2023-05-23T02:24:48;15.40;99.90
17425;DHT22;8830;50.978;5.058;2023-05-23T02:27:16;15.30;99.90
17425;DHT22;8830;50.978;5.058;2023-05-23T02:29:43;15.30;99.90
17425;DHT22;8830;50.978;5.058;2023-05-23T02:32:10;15.30;99.90
17425;DHT22;8830;50.978;5.058;2023-05-23T02:34:40;15.30;99.90
17425;DHT22;8830;50.978;5.058;2023-05-23T02:37:12;15.50;99.90
17425;DHT22;8830;50.978;5.058;2023-05-23T02:39:40;15.30;99.90
17425;DHT22;8830;50.978;5.058;2023-05-23T02:42:07;15.30;99.90
17425;DHT22;8830;50.978;5.058;2023-05-23T02:44:34;15.30;99.90
17425;DHT22;8830;50.978;5.058;2023-05-23T02:47:02;15.10;99.90
17425;DHT22;8830;50.978;5.058;2023-05-23T02:49:29;15.30;99.90
17425;DHT22;8830;50.978;5.058;2023-05-23T02:51:56;15.30;99.90
17425;DHT22;8830;50.978;5.058;2023-05-23T02:54:24;15.30;99.90
17425;DHT22;8830;50.978;5.058;2023-05-23T02:56:51;15.30;99.90
17425;DHT22;8830;50.978;5.058;2023-05-23T02:59:20;15.30;99.90
17425;DHT22;8830;50.978;5.058;2023-05-23T03:01:47;15.30;99.90
17425;DHT22;8830;50.978;5.058;2023-05-23T03:04:14;15.20;99.90
17425;DHT22;8830;50.978;5.058;2023-05-23T03:06:43;15.30;99.90
17425;DHT22;8830;50.978;5.058;2023-05-23T03:09:10;15.10;99.90
17425;DHT22;8830;50.978;5.058;2023-05-23T03:11:38;15.10;99.90
17425;DHT22;8830;50.978;5.058;2023-05-23T03:14:05;15.10;99.90
17425;DHT22;8830;50.978;5.058;2023-05-23T03:19:00;15.00;99.90
17425;DHT22;8830;50.978;5.058;2023-05-23T03:21:27;14.90;99.90
17425;DHT22;8830;50.978;5.058;2023-05-23T03:23:54;14.90;99.90
17425;DHT22;8830;50.978;5.058;2023-05-23T03:26:21;14.90;99.90
17425;DHT22;8830;50.978;5.058;2023-05-23T03:28:50;15.00;99.90
17425;DHT22;8830;50.978;5.058;2023-05-23T03:31:17;15.00;99.90
17425;DHT22;8830;50.978;5.058;2023-05-23T03:33:44;14.90;99.90
17425;DHT22;8830;50.978;5.058;2023-05-23T03:36:11;14.90;99.90
17425;DHT22;8830;50.978;5.058;2023-05-23T03:38:38;14.80;99.90
17425;DHT22;8830;50.978;5.058;2023-05-23T03:41:05;14.80;99.90
17425;DHT22;8830;50.978;5.058;2023-05-23T03:43:32;14.80;99.90
17425;DHT22;8830;50.978;5.058;2023-05-23T03:46:01;14.90;99.90
17425;DHT22;8830;50.978;5.058;2023-05-23T03:48:28;14.80;99.90
17425;DHT22;8830;50.978;5.058;2023-05-23T03:50:55;14.90;99.90
17425;DHT22;8830;50.978;5.058;2023-05-23T03:53:22;14.80;99.90
17425;DHT22;8830;50.978;5.058;2023-05-23T03:55:51;14.80;99.90
17425;DHT22;8830;50.978;5.058;2023-05-23T03:58:18;14.90;99.90
17425;DHT22;8830;50.978;5.058;2023-05-23T04:00:45;14.90;99.90
17425;DHT22;8830;50.978;5.058;2023-05-23T04:03:15;14.90;99.90
17425;DHT22;8830;50.978;5.058;2023-05-23T04:05:42;14.90;99.90
17425;DHT22;8830;50.978;5.058;2023-05-23T04:08:09;14.80;99.90
17425;DHT22;8830;50.978;5.058;2023-05-23T04:10:36;14.80;99.90
17425;DHT22;8830;50.978;5.058;2023-05-23T04:13:05;14.80;99.90
17425;DHT22;8830;50.978;5.058;2023-05-23T04:15:34;14.80;99.90
17425;DHT22;8830;50.978;5.058;2023-05-23T04:20:30;14.70;99.90
17425;DHT22;8830;50.978;5.058;2023-05-23T04:25:25;14.70;99.90
17425;DHT22;8830;50.978;5.058;2023-05-23T04:27:52;14.80;99.90
17425;DHT22;8830;50.978;5.058;2023-05-23T04:30:20;14.80;99.90
17425;DHT22;8830;50.978;5.058;2023-05-23T04:32:48;14.80;99.90
17425;DHT22;8830;50.978;5.058;2023-05-23T04:35:15;14.80;99.90
17425;DHT22;8830;50.978;5.058;2023-05-23T04:40:11;15.00;99.90
17425;DHT22;8830;50.978;5.058;2023-05-23T04:42:39;15.00;99.90
17425;DHT22;8830;50.978;5.058;2023-05-23T04:45:09;16.20;99.90
17425;DHT22;8830;50.978;5.058;2023-05-23T04:47:37;15.10;99.90
17425;DHT22;8830;50.978;5.058;2023-05-23T04:52:31;15.10;99.90
17425;DHT22;8830;50.978;5.058;2023-05-23T04:55:00;15.20;99.90
17425;DHT22;8830;50.978;5.058;2023-05-23T04:57:27;15.20;99.90
17425;DHT22;8830;50.978;5.058;2023-05-23T05:02:22;15.20;99.90
17425;DHT22;8830;50.978;5.058;2023-05-23T05:04:50;15.30;99.90
17425;DHT22;8830;50.978;5.058;2023-05-23T05:12:13;15.30;99.90
17425;DHT22;8830;50.978;5.058;2023-05-23T05:14:40;15.30;99.90
17425;DHT22;8830;50.978;5.058;2023-05-23T05:22:02;15.30;99.90
17425;DHT22;8830;50.978;5.058;2023-05-23T05:24:29;15.30;99.90
17425;DHT22;8830;50.978;5.058;2023-05-23T05:26:57;15.30;99.90
17425;DHT22;8830;50.978;5.058;2023-05-23T05:29:25;15.20;99.90
17425;DHT22;8830;50.978;5.058;2023-05-23T05:31:53;15.30;99.90
17425;DHT22;8830;50.978;5.058;2023-05-23T05:34:20;15.30;99.90
17425;DHT22;8830;50.978;5.058;2023-05-23T05:41:42;15.40;99.90
17425;DHT22;8830;50.978;5.058;2023-05-23T05:44:09;15.40;99.90
17425;DHT22;8830;50.978;5.058;2023-05-23T05:46:39;15.40;99.90
17425;DHT22;8830;50.978;5.058;2023-05-23T05:54:02;15.50;99.90
17425;DHT22;8830;50.978;5.058;2023-05-23T06:01:24;15.50;99.90
17425;DHT22;8830;50.978;5.058;2023-05-23T06:03:53;15.50;99.90
17425;DHT22;8830;50.978;5.058;2023-05-23T06:06:20;15.50;99.90
17425;DHT22;8830;50.978;5.058;2023-05-23T06:11:15;15.40;99.90
17425;DHT22;8830;50.978;5.058;2023-05-23T06:13:42;15.30;99.90
17425;DHT22;8830;50.978;5.058;2023-05-23T06:16:09;15.40;99.90
17425;DHT22;8830;50.978;5.058;2023-05-23T06:18:36;15.30;99.90
17425;DHT22;8830;50.978;5.058;2023-05-23T06:21:06;15.40;99.90
17425;DHT22;8830;50.978;5.058;2023-05-23T06:35:49;15.10;99.90
17425;DHT22;8830;50.978;5.058;2023-05-23T06:40:46;15.20;99.90
17425;DHT22;8830;50.978;5.058;2023-05-23T06:43:13;15.20;99.90
17425;DHT22;8830;50.978;5.058;2023-05-23T06:45:40;15.20;99.90
17425;DHT22;8830;50.978;5.058;2023-05-23T06:48:07;15.10;99.90
17425;DHT22;8830;50.978;5.058;2023-05-23T06:50:34;15.00;99.90
17425;DHT22;8830;50.978;5.058;2023-05-23T06:53:02;15.30;99.90
17425;DHT22;8830;50.978;5.058;2023-05-23T06:55:31;15.20;99.90
17425;DHT22;8830;50.978;5.058;2023-05-23T06:57:58;15.20;99.90
17425;DHT22;8830;50.978;5.058;2023-05-23T07:02:55;15.30;99.90
17425;DHT22;8830;50.978;5.058;2023-05-23T07:05:26;15.40;99.90
17425;DHT22;8830;50.978;5.058;2023-05-23T07:07:54;15.40;99.90
17425;DHT22;8830;50.978;5.058;2023-05-23T07:15:17;15.50;99.90
17425;DHT22;8830;50.978;5.058;2023-05-23T07:17:44;15.80;99.90
17425;DHT22;8830;50.978;5.058;2023-05-23T07:25:07;16.30;99.90
17425;DHT22;8830;50.978;5.058;2023-05-23T07:27:34;16.30;99.90
17425;DHT22;8830;50.978;5.058;2023-05-23T07:30:03;16.00;99.90
17425;DHT22;8830;50.978;5.058;2023-05-23T07:34:59;15.90;99.90
17425;DHT22;8830;50.978;5.058;2023-05-23T07:42:21;15.10;99.90
17425;DHT22;8830;50.978;5.058;2023-05-23T07:49:45;15.10;99.90
17425;DHT22;8830;50.978;5.058;2023-05-23T07:52:13;15.00;99.90
17425;DHT22;8830;50.978;5.058;2023-05-23T07:57:08;15.00;99.90
17425;DHT22;8830;50.978;5.058;2023-05-23T08:04:32;14.90;99.90
17425;DHT22;8830;50.978;5.058;2023-05-23T08:06:59;14.90;99.90
17425;DHT22;8830;50.978;5.058;2023-05-23T08:09:26;14.90;99.90
17425;DHT22;8830;50.978;5.058;2023-05-23T08:11:53;14.90;99.90
17425;DHT22;8830;50.978;5.058;2023-05-23T08:14:20;15.50;99.90
17425;DHT22;8830;50.978;5.058;2023-05-23T08:16:47;15.50;99.90
17425;DHT22;8830;50.978;5.058;2023-05-23T08:24:12;17.90;99.90
17425;DHT22;8830;50.978;5.058;2023-05-23T08:26:40;17.30;99.90
17425;DHT22;8830;50.978;5.058;2023-05-23T08:34:02;17.50;99.90
17425;DHT22;8830;50.978;5.058;2023-05-23T08:39:00;17.60;99.90
17425;DHT22;8830;50.978;5.058;2023-05-23T08:41:29;17.60;99.90
17425;DHT22;8830;50.978;5.058;2023-05-23T08:43:56;17.30;99.90
17425;DHT22;8830;50.978;5.058;2023-05-23T08:46:24;17.40;99.90
17425;DHT22;8830;50.978;5.058;2023-05-23T08:48:53;17.40;99.90
17425;DHT22;8830;50.978;5.058;2023-05-23T08:51:22;17.40;99.90
17425;DHT22;8830;50.978;5.058;2023-05-23T08:56:22;17.40;99.90
17425;DHT22;8830;50.978;5.058;2023-05-23T09:01:18;19.10;99.90
17425;DHT22;8830;50.978;5.058;2023-05-23T09:03:46;17.70;99.90
17425;DHT22;8830;50.978;5.058;2023-05-23T09:06:15;17.70;99.90
17425;DHT22;8830;50.978;5.058;2023-05-23T09:08:43;17.50;99.90
17425;DHT22;8830;50.978;5.058;2023-05-23T09:11:11;17.40;99.90
17425;DHT22;8830;50.978;5.058;2023-05-23T09:13:41;17.40;99.90
17425;DHT22;8830;50.978;5.058;2023-05-23T09:16:09;17.40;99.90
17425;DHT22;8830;50.978;5.058;2023-05-23T09:18:38;17.30;99.90
17425;DHT22;8830;50.978;5.058;2023-05-23T09:21:07;17.30;99.90
17425;DHT22;8830;50.978;5.058;2023-05-23T09:23:36;17.30;99.90
17425;DHT22;8830;50.978;5.058;2023-05-23T09:26:05;17.20;99.90
17425;DHT22;8830;50.978;5.058;2023-05-23T09:28:34;17.10;99.90
17425;DHT22;8830;50.978;5.058;2023-05-23T09:31:03;17.00;99.90
17425;DHT22;8830;50.978;5.058;2023-05-23T09:33:37;17.00;99.90
17425;DHT22;8830;50.978;5.058;2023-05-23T09:36:05;17.00;99.90
17425;DHT22;8830;50.978;5.058;2023-05-23T09:38:38;17.00;99.90
17425;DHT22;8830;50.978;5.058;2023-05-23T09:41:05;17.40;99.90
17425;DHT22;8830;50.978;5.058;2023-05-23T09:43:33;17.40;99.90
17425;DHT22;8830;50.978;5.058;2023-05-23T09:46:06;17.60;99.90
17425;DHT22;8830;50.978;5.058;2023-05-23T09:48:34;17.50;99.90
17425;DHT22;8830;50.978;5.058;2023-05-23T09:51:03;17.30;99.90
17425;DHT22;8830;50.978;5.058;2023-05-23T09:53:31;17.30;99.90
17425;DHT22;8830;50.978;5.058;2023-05-23T09:55:59;17.10;99.90
17425;DHT22;8830;50.978;5.058;2023-05-23T09:58:28;17.10;99.90
17425;DHT22;8830;50.978;5.058;2023-05-23T10:00:56;17.10;99.90
17425;DHT22;8830;50.978;5.058;2023-05-23T10:03:34;17.20;99.90
17425;DHT22;8830;50.978;5.058;2023-05-23T10:06:09;17.10;99.90
17425;DHT22;8830;50.978;5.058;2023-05-23T10:08:41;17.20;99.90
17425;DHT22;8830;50.978;5.058;2023-05-23T10:14:15;17.60;99.90
17425;DHT22;8830;50.978;5.058;2023-05-23T10:16:54;17.60;99.90
17425;DHT22;8830;50.978;5.058;2023-05-23T10:19:26;17.70;99.90
17425;DHT22;8830;50.978;5.058;2023-05-23T10:21:58;17.70;99.90
17425;DHT22;8830;50.978;5.058;2023-05-23T10:26:53;18.00;99.90
17425;DHT22;8830;50.978;5.058;2023-05-23T10:29:21;18.20;99.90
17425;DHT22;8830;50.978;5.058;2023-05-23T10:31:49;18.20;99.90
17425;DHT22;8830;50.978;5.058;2023-05-23T10:34:26;18.30;99.90
17425;DHT22;8830;50.978;5.058;2023-05-23T10:37:00;18.50;99.90
17425;DHT22;8830;50.978;5.058;2023-05-23T10:39:45;18.70;99.90
17425;DHT22;8830;50.978;5.058;2023-05-23T10:42:19;18.70;99.90
17425;DHT22;8830;50.978;5.058;2023-05-23T10:47:25;18.50;99.90
17425;DHT22;8830;50.978;5.058;2023-05-23T10:52:23;18.80;99.90
17425;DHT22;8830;50.978;5.058;2023-05-23T10:54:53;19.00;99.90
17425;DHT22;8830;50.978;5.058;2023-05-23T10:57:24;19.00;99.90
17425;DHT22;8830;50.978;5.058;2023-05-23T10:59:52;19.30;99.90
17425;DHT22;8830;50.978;5.058;2023-05-23T11:02:25;19.30;99.90
17425;DHT22;8830;50.978;5.058;2023-05-23T11:05:21;19.10;99.90
17425;DHT22;8830;50.978;5.058;2023-05-23T11:08:09;19.40;99.90
17425;DHT22;8830;50.978;5.058;2023-05-23T11:10:59;19.20;99.90
17425;DHT22;8830;50.978;5.058;2023-05-23T11:13:55;18.70;99.90
17425;DHT22;8830;50.978;5.058;2023-05-23T11:16:26;19.10;99.90
17425;DHT22;8830;50.978;5.058;2023-05-23T11:19:19;19.20;99.90
17425;DHT22;8830;50.978;5.058;2023-05-23T11:21:52;19.20;99.90
17425;DHT22;8830;50.978;5.058;2023-05-23T11:24:19;19.20;99.90
17425;DHT22;8830;50.978;5.058;2023-05-23T11:26:53;19.40;99.90
17425;DHT22;8830;50.978;5.058;2023-05-23T11:29:25;19.40;99.90
17425;DHT22;8830;50.978;5.058;2023-05-23T11:31:53;19.60;99.90
17425;DHT22;8830;50.978;5.058;2023-05-23T11:34:21;19.40;99.90
17425;DHT22;8830;50.978;5.058;2023-05-23T11:36:53;19.50;99.90
17425;DHT22;8830;50.978;5.058;2023-05-23T11:39:21;19.70;99.90
17425;DHT22;8830;50.978;5.058;2023-05-23T11:41:58;19.40;99.90
17425;DHT22;8830;50.978;5.058;2023-05-23T11:44:26;19.30;99.90
17425;DHT22;8830;50.978;5.058;2023-05-23T11:47:00;19.50;99.90
17425;DHT22;8830;50.978;5.058;2023-05-23T11:49:28;19.50;99.90
17425;DHT22;8830;50.978;5.058;2023-05-23T11:54:25;19.00;99.90
17425;DHT22;8830;50.978;5.058;2023-05-23T11:56:52;19.10;99.90
17425;DHT22;8830;50.978;5.058;2023-05-23T11:59:21;19.70;99.90
17425;DHT22;8830;50.978;5.058;2023-05-23T12:06:45;19.70;99.90
17425;DHT22;8830;50.978;5.058;2023-05-23T12:09:15;19.70;99.90
17425;DHT22;8830;50.978;5.058;2023-05-23T12:14:14;20.50;99.90
17425;DHT22;8830;50.978;5.058;2023-05-23T12:16:42;20.50;99.90
17425;DHT22;8830;50.978;5.058;2023-05-23T12:21:42;20.20;99.90
17425;DHT22;8830;50.978;5.058;2023-05-23T12:24:19;19.60;99.90
17425;DHT22;8830;50.978;5.058;2023-05-23T12:26:51;19.30;99.90
17425;DHT22;8830;50.978;5.058;2023-05-23T12:31:50;19.40;99.90
17425;DHT22;8830;50.978;5.058;2023-05-23T12:36:47;19.60;99.90
17425;DHT22;8830;50.978;5.058;2023-05-23T12:39:22;19.50;99.90
17425;DHT22;8830;50.978;5.058;2023-05-23T12:41:49;19.80;99.90
17425;DHT22;8830;50.978;5.058;2023-05-23T12:44:17;19.70;99.90
17425;DHT22;8830;50.978;5.058;2023-05-23T12:46:44;20.10;99.90
17425;DHT22;8830;50.978;5.058;2023-05-23T12:49:13;20.10;99.90
17425;DHT22;8830;50.978;5.058;2023-05-23T12:51:40;19.70;99.90
17425;DHT22;8830;50.978;5.058;2023-05-23T12:54:07;19.80;99.90
17425;DHT22;8830;50.978;5.058;2023-05-23T12:59:03;19.50;99.90
17425;DHT22;8830;50.978;5.058;2023-05-23T13:01:30;19.50;99.90
17425;DHT22;8830;50.978;5.058;2023-05-23T13:04:00;19.30;99.90
17425;DHT22;8830;50.978;5.058;2023-05-23T13:06:27;19.30;99.90
17425;DHT22;8830;50.978;5.058;2023-05-23T13:08:55;19.60;99.90
17425;DHT22;8830;50.978;5.058;2023-05-23T13:11:22;19.60;99.90
17425;DHT22;8830;50.978;5.058;2023-05-23T13:13:50;19.30;99.90
17425;DHT22;8830;50.978;5.058;2023-05-23T13:16:18;19.20;99.90
17425;DHT22;8830;50.978;5.058;2023-05-23T13:18:45;19.30;99.90
17425;DHT22;8830;50.978;5.058;2023-05-23T13:21:12;19.10;99.90
17425;DHT22;8830;50.978;5.058;2023-05-23T13:28:34;19.70;99.90
17425;DHT22;8830;50.978;5.058;2023-05-23T13:33:30;20.00;99.90
17425;DHT22;8830;50.978;5.058;2023-05-23T13:35:57;20.10;99.90
17425;DHT22;8830;50.978;5.058;2023-05-23T13:38:24;20.10;99.90
17425;DHT22;8830;50.978;5.058;2023-05-23T13:43:20;20.30;99.90
17425;DHT22;8830;50.978;5.058;2023-05-23T13:45:47;19.90;99.90
17425;DHT22;8830;50.978;5.058;2023-05-23T13:48:16;19.90;99.90
17425;DHT22;8830;50.978;5.058;2023-05-23T13:50:43;19.50;99.90
17425;DHT22;8830;50.978;5.058;2023-05-23T13:53:10;19.50;99.90
17425;DHT22;8830;50.978;5.058;2023-05-23T13:58:10;19.00;99.90
17425;DHT22;8830;50.978;5.058;2023-05-23T14:00:37;19.30;99.90
17425;DHT22;8830;50.978;5.058;2023-05-23T14:03:04;19.50;99.90
17425;DHT22;8830;50.978;5.058;2023-05-23T14:08:00;19.70;99.90
17425;DHT22;8830;50.978;5.058;2023-05-23T14:10:27;19.50;99.90
17425;DHT22;8830;50.978;5.058;2023-05-23T14:15:22;19.80;99.90
17425;DHT22;8830;50.978;5.058;2023-05-23T14:17:49;19.80;99.90
17425;DHT22;8830;50.978;5.058;2023-05-23T14:20:20;19.90;99.90
17425;DHT22;8830;50.978;5.058;2023-05-23T14:22:49;19.90;99.90
17425;DHT22;8830;50.978;5.058;2023-05-23T14:25:16;19.70;99.90
17425;DHT22;8830;50.978;5.058;2023-05-23T14:27:43;19.60;99.90
17425;DHT22;8830;50.978;5.058;2023-05-23T14:30:11;19.60;99.90
17425;DHT22;8830;50.978;5.058;2023-05-23T14:32:38;19.30;99.90
17425;DHT22;8830;50.978;5.058;2023-05-23T14:35:07;19.20;99.90
17425;DHT22;8830;50.978;5.058;2023-05-23T14:37:35;19.20;99.90
17425;DHT22;8830;50.978;5.058;2023-05-23T14:42:34;19.60;99.90
17425;DHT22;8830;50.978;5.058;2023-05-23T14:49:57;19.00;99.90
17425;DHT22;8830;50.978;5.058;2023-05-23T14:54:51;19.10;99.90
17425;DHT22;8830;50.978;5.058;2023-05-23T14:57:20;19.10;99.90
17425;DHT22;8830;50.978;5.058;2023-05-23T15:02:14;19.00;99.90
17425;DHT22;8830;50.978;5.058;2023-05-23T15:04:42;18.80;99.90
17425;DHT22;8830;50.978;5.058;2023-05-23T15:07:09;18.80;99.90
17425;DHT22;8830;50.978;5.058;2023-05-23T15:09:36;18.60;99.90
17425;DHT22;8830;50.978;5.058;2023-05-23T15:12:03;18.80;99.90
17425;DHT22;8830;50.978;5.058;2023-05-23T15:14:33;18.80;99.90
17425;DHT22;8830;50.978;5.058;2023-05-23T15:17:00;19.10;99.90
17425;DHT22;8830;50.978;5.058;2023-05-23T15:22:01;19.20;99.90
17425;DHT22;8830;50.978;5.058;2023-05-23T15:29:23;19.40;99.90
17425;DHT22;8830;50.978;5.058;2023-05-23T15:31:52;19.40;99.90
17425;DHT22;8830;50.978;5.058;2023-05-23T15:34:19;19.30;99.90
17425;DHT22;8830;50.978;5.058;2023-05-23T15:36:46;19.30;99.90
17425;DHT22;8830;50.978;5.058;2023-05-23T15:41:41;19.40;99.90
17425;DHT22;8830;50.978;5.058;2023-05-23T15:44:08;19.60;99.90
17425;DHT22;8830;50.978;5.058;2023-05-23T15:46:36;19.60;99.90
17425;DHT22;8830;50.978;5.058;2023-05-23T15:54:00;19.20;99.90
17425;DHT22;8830;50.978;5.058;2023-05-23T15:56:27;19.50;99.90
17425;DHT22;8830;50.978;5.058;2023-05-23T15:58:55;19.30;99.90
17425;DHT22;8830;50.978;5.058;2023-05-23T16:11:13;19.00;99.90
17425;DHT22;8830;50.978;5.058;2023-05-23T16:13:40;18.60;99.90
17425;DHT22;8830;50.978;5.058;2023-05-23T16:18:34;17.90;99.90
17425;DHT22;8830;50.978;5.058;2023-05-23T16:21:02;17.90;99.90
17425;DHT22;8830;50.978;5.058;2023-05-23T16:28:26;18.20;99.90
17425;DHT22;8830;50.978;5.058;2023-05-23T16:30:53;18.30;99.90
17425;DHT22;8830;50.978;5.058;2023-05-23T16:33:21;18.30;99.90
17425;DHT22;8830;50.978;5.058;2023-05-23T16:38:15;18.20;99.90
17425;DHT22;8830;50.978;5.058;2023-05-23T16:45:39;18.50;99.90
17425;DHT22;8830;50.978;5.058;2023-05-23T16:57:57;18.10;99.90
17425;DHT22;8830;50.978;5.058;2023-05-23T17:00:25;18.10;99.90
17425;DHT22;8830;50.978;5.058;2023-05-23T17:02:52;18.30;99.90
17425;DHT22;8830;50.978;5.058;2023-05-23T17:05:20;18.30;99.90
17425;DHT22;8830;50.978;5.058;2023-05-23T17:10:15;18.40;99.90
17425;DHT22;8830;50.978;5.058;2023-05-23T17:12:42;18.10;99.90
17425;DHT22;8830;50.978;5.058;2023-05-23T17:17:39;17.80;99.90
17425;DHT22;8830;50.978;5.058;2023-05-23T17:20:07;17.60;99.90
17425;DHT22;8830;50.978;5.058;2023-05-23T17:22:35;17.60;99.90
17425;DHT22;8830;50.978;5.058;2023-05-23T17:25:03;17.60;99.90
17425;DHT22;8830;50.978;5.058;2023-05-23T17:27:31;17.50;99.90
17425;DHT22;8830;50.978;5.058;2023-05-23T17:32:30;17.50;99.90
17425;DHT22;8830;50.978;5.058;2023-05-23T17:35:00;17.50;99.90
17425;DHT22;8830;50.978;5.058;2023-05-23T17:37:27;17.50;99.90
17425;DHT22;8830;50.978;5.058;2023-05-23T17:42:22;16.70;99.90
17425;DHT22;8830;50.978;5.058;2023-05-23T17:44:49;16.70;99.90
17425;DHT22;8830;50.978;5.058;2023-05-23T17:47:16;16.70;99.90
17425;DHT22;8830;50.978;5.058;2023-05-23T17:49:45;16.70;99.90
17425;DHT22;8830;50.978;5.058;2023-05-23T17:52:12;16.60;99.90
17425;DHT22;8830;50.978;5.058;2023-05-23T17:54:39;16.60;99.90
17425;DHT22;8830;50.978;5.058;2023-05-23T17:57:07;16.50;99.90
17425;DHT22;8830;50.978;5.058;2023-05-23T17:59:34;16.60;99.90
17425;DHT22;8830;50.978;5.058;2023-05-23T18:02:01;16.50;99.90
17425;DHT22;8830;50.978;5.058;2023-05-23T18:04:29;16.60;99.90
17425;DHT22;8830;50.978;5.058;2023-05-23T18:06:58;16.50;99.90
17425;DHT22;8830;50.978;5.058;2023-05-23T18:09:27;16.50;99.90
17425;DHT22;8830;50.978;5.058;2023-05-23T18:11:54;16.40;99.90
17425;DHT22;8830;50.978;5.058;2023-05-23T18:16:49;16.40;99.90
17425;DHT22;8830;50.978;5.058;2023-05-23T18:19:16;16.30;99.90
17425;DHT22;8830;50.978;5.058;2023-05-23T18:21:44;16.30;99.90
17425;DHT22;8830;50.978;5.058;2023-05-23T18:24:12;16.40;99.90
17425;DHT22;8830;50.978;5.058;2023-05-23T18:29:08;16.30;99.90
17425;DHT22;8830;50.978;5.058;2023-05-23T18:34:02;16.10;99.90
17425;DHT22;8830;50.978;5.058;2023-05-23T18:36:30;16.00;99.90
17425;DHT22;8830;50.978;5.058;2023-05-23T18:43:54;15.70;99.90
17425;DHT22;8830;50.978;5.058;2023-05-23T18:58:41;15.20;99.90
17425;DHT22;8830;50.978;5.058;2023-05-23T19:01:08;15.10;99.90
17425;DHT22;8830;50.978;5.058;2023-05-23T19:06:05;14.90;99.90
17425;DHT22;8830;50.978;5.058;2023-05-23T19:13:29;14.80;99.90
17425;DHT22;8830;50.978;5.058;2023-05-23T19:18:26;14.70;99.90
17425;DHT22;8830;50.978;5.058;2023-05-23T19:23:21;14.60;99.90
17425;DHT22;8830;50.978;5.058;2023-05-23T19:28:15;14.40;99.90
17425;DHT22;8830;50.978;5.058;2023-05-23T19:30:43;14.30;99.90
17425;DHT22;8830;50.978;5.058;2023-05-23T19:33:11;14.30;99.90
17425;DHT22;8830;50.978;5.058;2023-05-23T19:35:39;14.30;99.90
17425;DHT22;8830;50.978;5.058;2023-05-23T19:38:06;14.20;99.90
17425;DHT22;8830;50.978;5.058;2023-05-23T19:40:33;14.10;99.90
17425;DHT22;8830;50.978;5.058;2023-05-23T19:45:28;14.00;99.90
17425;DHT22;8830;50.978;5.058;2023-05-23T19:47:56;14.00;99.90
17425;DHT22;8830;50.978;5.058;2023-05-23T19:52:52;13.90;99.90
17425;DHT22;8830;50.978;5.058;2023-05-23T19:55:19;13.80;99.90
17425;DHT22;8830;50.978;5.058;2023-05-23T19:57:46;13.80;99.90
17425;DHT22;8830;50.978;5.058;2023-05-23T20:00:14;13.70;99.90
17425;DHT22;8830;50.978;5.058;2023-05-23T20:02:41;13.70;99.90
17425;DHT22;8830;50.978;5.058;2023-05-23T20:05:09;13.70;99.90
17425;DHT22;8830;50.978;5.058;2023-05-23T20:07:37;13.60;99.90
17425;DHT22;8830;50.978;5.058;2023-05-23T20:10:05;13.60;99.90
17425;DHT22;8830;50.978;5.058;2023-05-23T20:12:32;13.50;99.90
17425;DHT22;8830;50.978;5.058;2023-05-23T20:15:00;13.50;99.90
17425;DHT22;8830;50.978;5.058;2023-05-23T20:17:27;13.50;99.90
17425;DHT22;8830;50.978;5.058;2023-05-23T20:19:55;13.30;99.90
17425;DHT22;8830;50.978;5.058;2023-05-23T20:24:51;13.30;99.90